sensor_id;sensor_type;location;lat;lon;timestamp;temperature;humidity
76102;SHT30;64830;46.910;6.354;2023-04-09T00:01:19;4.44;76.09
76102;SHT30;64830;46.910;6.354;2023-04-09T00:03:45;4.40;75.79
76102;SHT30;64830;46.910;6.354;2023-04-09T00:06:10;4.36;76.59
76102;SHT30;64830;46.910;6.354;2023-04-09T00:08:36;4.33;75.46
76102;SHT30;64830;46.910;6.354;2023-04-09T00:11:02;4.29;75.46
76102;SHT30;64830;46.910;6.354;2023-04-09T00:13:27;4.27;75.89
76102;SHT30;64830;46.910;6.354;2023-04-09T00:15:53;4.29;77.31
76102;SHT30;64830;46.910;6.354;2023-04-09T00:18:18;4.27;76.00
76102;SHT30;64830;46.910;6.354;2023-04-09T00:20:43;4.26;77.95
76102;SHT30;64830;46.910;6.354;2023-04-09T00:23:09;4.23;75.97
76102;SHT30;64830;46.910;6.354;2023-04-09T00:25:35;4.21;76.01
76102;SHT30;64830;46.910;6.354;2023-04-09T00:28:00;4.20;75.70
76102;SHT30;64830;46.910;6.354;2023-04-09T00:30:28;4.23;76.28
76102;SHT30;64830;46.910;6.354;2023-04-09T00:32:54;4.21;76.33
76102;SHT30;64830;46.910;6.354;2023-04-09T00:35:19;4.19;75.65
76102;SHT30;64830;46.910;6.354;2023-04-09T00:37:45;4.14;76.00
76102;SHT30;64830;46.910;6.354;2023-04-09T00:40:10;4.19;75.70
76102;SHT30;64830;46.910;6.354;2023-04-09T00:42:36;4.16;75.39
76102;SHT30;64830;46.910;6.354;2023-04-09T00:45:03;4.19;75.35
76102;SHT30;64830;46.910;6.354;2023-04-09T00:47:28;4.16;76.44
76102;SHT30;64830;46.910;6.354;2023-04-09T00:49:55;4.09;76.26
76102;SHT30;64830;46.910;6.354;2023-04-09T00:52:22;4.06;76.76
76102;SHT30;64830;46.910;6.354;2023-04-09T00:54:48;3.96;77.51
76102;SHT30;64830;46.910;6.354;2023-04-09T00:57:14;3.95;76.25
76102;SHT30;64830;46.910;6.354;2023-04-09T00:59:41;3.95;76.06
76102;SHT30;64830;46.910;6.354;2023-04-09T01:02:07;3.96;75.89
76102;SHT30;64830;46.910;6.354;2023-04-09T01:04:32;3.98;75.65
76102;SHT30;64830;46.910;6.354;2023-04-09T01:07:08;4.03;75.41
76102;SHT30;64830;46.910;6.354;2023-04-09T01:09:42;4.05;75.34
76102;SHT30;64830;46.910;6.354;2023-04-09T01:12:20;3.99;76.89
76102;SHT30;64830;46.910;6.354;2023-04-09T01:17:25;4.00;75.94
76102;SHT30;64830;46.910;6.354;2023-04-09T01:20:10;3.93;75.81
76102;SHT30;64830;46.910;6.354;2023-04-09T01:30:30;3.93;75.92
76102;SHT30;64830;46.910;6.354;2023-04-09T01:32:56;3.91;77.74
76102;SHT30;64830;46.910;6.354;2023-04-09T01:35:24;3.86;76.66
76102;SHT30;64830;46.910;6.354;2023-04-09T01:37:51;3.89;76.37
76102;SHT30;64830;46.910;6.354;2023-04-09T01:40:17;3.91;76.34
76102;SHT30;64830;46.910;6.354;2023-04-09T01:42:42;3.91;76.35
76102;SHT30;64830;46.910;6.354;2023-04-09T01:45:09;3.93;75.81
76102;SHT30;64830;46.910;6.354;2023-04-09T01:47:36;3.96;75.44
76102;SHT30;64830;46.910;6.354;2023-04-09T01:50:02;3.96;75.20
76102;SHT30;64830;46.910;6.354;2023-04-09T01:52:28;3.96;75.04
76102;SHT30;64830;46.910;6.354;2023-04-09T01:54:53;3.96;75.25
76102;SHT30;64830;46.910;6.354;2023-04-09T01:57:18;3.91;76.26
76102;SHT30;64830;46.910;6.354;2023-04-09T01:59:44;3.89;75.52
76102;SHT30;64830;46.910;6.354;2023-04-09T02:02:17;3.86;77.29
76102;SHT30;64830;46.910;6.354;2023-04-09T02:04:46;3.79;76.21
76102;SHT30;64830;46.910;6.354;2023-04-09T02:09:46;3.79;76.13
76102;SHT30;64830;46.910;6.354;2023-04-09T02:12:16;3.82;76.04
76102;SHT30;64830;46.910;6.354;2023-04-09T02:14:44;3.82;75.71
76102;SHT30;64830;46.910;6.354;2023-04-09T02:17:10;3.86;75.42
76102;SHT30;64830;46.910;6.354;2023-04-09T02:19:43;3.85;75.93
76102;SHT30;64830;46.910;6.354;2023-04-09T02:22:10;3.83;76.47
76102;SHT30;64830;46.910;6.354;2023-04-09T02:24:36;3.81;75.82
76102;SHT30;64830;46.910;6.354;2023-04-09T02:27:01;3.82;76.02
76102;SHT30;64830;46.910;6.354;2023-04-09T02:29:27;3.88;75.96
76102;SHT30;64830;46.910;6.354;2023-04-09T02:31:52;3.83;75.64
76102;SHT30;64830;46.910;6.354;2023-04-09T02:34:19;3.86;75.90
76102;SHT30;64830;46.910;6.354;2023-04-09T02:36:44;3.82;75.45
76102;SHT30;64830;46.910;6.354;2023-04-09T02:39:10;3.81;75.26
76102;SHT30;64830;46.910;6.354;2023-04-09T02:41:35;3.79;75.27
76102;SHT30;64830;46.910;6.354;2023-04-09T02:44:00;3.78;75.08
76102;SHT30;64830;46.910;6.354;2023-04-09T02:46:26;3.74;75.84
76102;SHT30;64830;46.910;6.354;2023-04-09T02:48:51;3.68;75.72
76102;SHT30;64830;46.910;6.354;2023-04-09T02:51:17;3.70;75.65
76102;SHT30;64830;46.910;6.354;2023-04-09T02:53:42;3.68;75.53
76102;SHT30;64830;46.910;6.354;2023-04-09T02:56:07;3.68;75.94
76102;SHT30;64830;46.910;6.354;2023-04-09T02:58:33;3.68;75.86
76102;SHT30;64830;46.910;6.354;2023-04-09T03:00:58;3.67;75.48
76102;SHT30;64830;46.910;6.354;2023-04-09T03:03:23;3.68;75.69
76102;SHT30;64830;46.910;6.354;2023-04-09T03:05:49;3.67;75.74
76102;SHT30;64830;46.910;6.354;2023-04-09T03:08:14;3.64;75.40
76102;SHT30;64830;46.910;6.354;2023-04-09T03:10:40;3.61;75.70
76102;SHT30;64830;46.910;6.354;2023-04-09T03:13:05;3.57;75.66
76102;SHT30;64830;46.910;6.354;2023-04-09T03:15:30;3.55;75.87
76102;SHT30;64830;46.910;6.354;2023-04-09T03:17:56;3.54;75.73
76102;SHT30;64830;46.910;6.354;2023-04-09T03:20:21;3.48;75.85
76102;SHT30;64830;46.910;6.354;2023-04-09T03:22:47;3.48;75.58
76102;SHT30;64830;46.910;6.354;2023-04-09T03:25:12;3.47;75.52
76102;SHT30;64830;46.910;6.354;2023-04-09T03:27:37;3.44;76.17
76102;SHT30;64830;46.910;6.354;2023-04-09T03:30:03;3.38;77.33
76102;SHT30;64830;46.910;6.354;2023-04-09T03:32:28;3.34;76.61
76102;SHT30;64830;46.910;6.354;2023-04-09T03:34:54;3.33;76.25
76102;SHT30;64830;46.910;6.354;2023-04-09T03:37:19;3.33;75.95
76102;SHT30;64830;46.910;6.354;2023-04-09T03:39:45;3.36;75.75
76102;SHT30;64830;46.910;6.354;2023-04-09T03:42:10;3.31;76.78
76102;SHT30;64830;46.910;6.354;2023-04-09T03:44:35;3.27;76.25
76102;SHT30;64830;46.910;6.354;2023-04-09T03:47:01;3.27;76.20
76102;SHT30;64830;46.910;6.354;2023-04-09T03:49:27;3.29;75.39
76102;SHT30;64830;46.910;6.354;2023-04-09T03:51:52;3.26;75.75
76102;SHT30;64830;46.910;6.354;2023-04-09T03:54:18;3.24;76.03
76102;SHT30;64830;46.910;6.354;2023-04-09T03:56:43;3.22;76.10
76102;SHT30;64830;46.910;6.354;2023-04-09T03:59:08;3.19;76.50
76102;SHT30;64830;46.910;6.354;2023-04-09T04:01:34;3.19;76.82
76102;SHT30;64830;46.910;6.354;2023-04-09T04:03:59;3.13;77.38
76102;SHT30;64830;46.910;6.354;2023-04-09T04:06:25;3.12;77.09
76102;SHT30;64830;46.910;6.354;2023-04-09T04:08:51;3.12;76.84
76102;SHT30;64830;46.910;6.354;2023-04-09T04:11:16;3.13;76.74
76102;SHT30;64830;46.910;6.354;2023-04-09T04:13:42;3.16;76.54
76102;SHT30;64830;46.910;6.354;2023-04-09T04:16:08;3.15;76.33
76102;SHT30;64830;46.910;6.354;2023-04-09T04:18:34;3.10;77.24
76102;SHT30;64830;46.910;6.354;2023-04-09T04:21:00;3.10;76.89
76102;SHT30;64830;46.910;6.354;2023-04-09T04:23:25;3.13;76.55
76102;SHT30;64830;46.910;6.354;2023-04-09T04:25:50;3.12;76.39
76102;SHT30;64830;46.910;6.354;2023-04-09T04:28:17;3.10;76.02
76102;SHT30;64830;46.910;6.354;2023-04-09T04:30:42;3.09;77.70
76102;SHT30;64830;46.910;6.354;2023-04-09T04:33:08;3.00;77.65
76102;SHT30;64830;46.910;6.354;2023-04-09T04:35:33;3.00;77.18
76102;SHT30;64830;46.910;6.354;2023-04-09T04:37:59;3.00;76.67
76102;SHT30;64830;46.910;6.354;2023-04-09T04:40:25;3.03;76.87
76102;SHT30;64830;46.910;6.354;2023-04-09T04:42:51;3.00;76.36
76102;SHT30;64830;46.910;6.354;2023-04-09T04:45:16;3.05;76.52
76102;SHT30;64830;46.910;6.354;2023-04-09T04:47:41;3.00;76.42
76102;SHT30;64830;46.910;6.354;2023-04-09T04:50:07;3.00;76.57
76102;SHT30;64830;46.910;6.354;2023-04-09T04:52:33;3.02;75.96
76102;SHT30;64830;46.910;6.354;2023-04-09T04:54:58;2.98;78.72
76102;SHT30;64830;46.910;6.354;2023-04-09T04:57:24;2.93;77.59
76102;SHT30;64830;46.910;6.354;2023-04-09T04:59:49;2.96;77.02
76102;SHT30;64830;46.910;6.354;2023-04-09T05:02:15;2.99;76.96
76102;SHT30;64830;46.910;6.354;2023-04-09T05:04:40;2.99;77.06
76102;SHT30;64830;46.910;6.354;2023-04-09T05:07:06;3.03;76.85
76102;SHT30;64830;46.910;6.354;2023-04-09T05:09:31;3.00;77.48
76102;SHT30;64830;46.910;6.354;2023-04-09T05:11:56;3.00;76.55
76102;SHT30;64830;46.910;6.354;2023-04-09T05:14:22;3.02;76.70
76102;SHT30;64830;46.910;6.354;2023-04-09T05:16:48;3.02;76.72
76102;SHT30;64830;46.910;6.354;2023-04-09T05:19:13;3.02;76.89
76102;SHT30;64830;46.910;6.354;2023-04-09T05:21:39;3.06;76.30
76102;SHT30;64830;46.910;6.354;2023-04-09T05:24:05;3.05;76.54
76102;SHT30;64830;46.910;6.354;2023-04-09T05:26:30;3.08;76.85
76102;SHT30;64830;46.910;6.354;2023-04-09T05:28:56;3.02;76.95
76102;SHT30;64830;46.910;6.354;2023-04-09T05:31:21;3.02;77.35
76102;SHT30;64830;46.910;6.354;2023-04-09T05:33:47;3.03;77.17
76102;SHT30;64830;46.910;6.354;2023-04-09T05:36:16;3.05;76.94
76102;SHT30;64830;46.910;6.354;2023-04-09T05:38:43;3.05;76.65
76102;SHT30;64830;46.910;6.354;2023-04-09T05:41:09;3.09;76.47
76102;SHT30;64830;46.910;6.354;2023-04-09T05:43:34;3.13;76.23
76102;SHT30;64830;46.910;6.354;2023-04-09T05:45:59;3.22;76.37
76102;SHT30;64830;46.910;6.354;2023-04-09T05:48:25;3.27;76.47
76102;SHT30;64830;46.910;6.354;2023-04-09T05:50:51;3.34;76.56
76102;SHT30;64830;46.910;6.354;2023-04-09T05:53:17;3.46;76.55
76102;SHT30;64830;46.910;6.354;2023-04-09T05:55:43;3.55;76.41
76102;SHT30;64830;46.910;6.354;2023-04-09T05:58:09;3.70;76.25
76102;SHT30;64830;46.910;6.354;2023-04-09T06:00:34;3.81;76.08
76102;SHT30;64830;46.910;6.354;2023-04-09T06:02:59;3.93;75.59
76102;SHT30;64830;46.910;6.354;2023-04-09T06:05:25;4.05;75.57
76102;SHT30;64830;46.910;6.354;2023-04-09T06:07:50;4.19;75.29
76102;SHT30;64830;46.910;6.354;2023-04-09T06:10:16;4.30;75.59
76102;SHT30;64830;46.910;6.354;2023-04-09T06:12:41;4.41;75.64
76102;SHT30;64830;46.910;6.354;2023-04-09T06:15:06;4.55;75.40
76102;SHT30;64830;46.910;6.354;2023-04-09T06:17:32;4.68;75.26
76102;SHT30;64830;46.910;6.354;2023-04-09T06:19:57;4.82;74.96
76102;SHT30;64830;46.910;6.354;2023-04-09T06:22:23;5.01;74.75
76102;SHT30;64830;46.910;6.354;2023-04-09T06:24:48;5.17;74.47
76102;SHT30;64830;46.910;6.354;2023-04-09T06:27:13;5.30;73.90
76102;SHT30;64830;46.910;6.354;2023-04-09T06:29:39;5.45;73.56
76102;SHT30;64830;46.910;6.354;2023-04-09T06:32:05;5.56;73.24
76102;SHT30;64830;46.910;6.354;2023-04-09T06:34:30;5.71;72.90
76102;SHT30;64830;46.910;6.354;2023-04-09T06:36:55;5.85;72.48
76102;SHT30;64830;46.910;6.354;2023-04-09T06:39:21;5.99;72.06
76102;SHT30;64830;46.910;6.354;2023-04-09T06:41:47;6.07;71.72
76102;SHT30;64830;46.910;6.354;2023-04-09T06:44:12;6.16;71.60
76102;SHT30;64830;46.910;6.354;2023-04-09T06:46:38;6.25;71.27
76102;SHT30;64830;46.910;6.354;2023-04-09T06:49:03;6.34;70.97
76102;SHT30;64830;46.910;6.354;2023-04-09T06:51:28;6.46;71.10
76102;SHT30;64830;46.910;6.354;2023-04-09T06:53:54;6.61;70.79
76102;SHT30;64830;46.910;6.354;2023-04-09T06:56:19;6.76;70.36
76102;SHT30;64830;46.910;6.354;2023-04-09T06:58:45;6.83;69.24
76102;SHT30;64830;46.910;6.354;2023-04-09T07:01:11;6.90;69.60
76102;SHT30;64830;46.910;6.354;2023-04-09T07:03:37;6.97;68.26
76102;SHT30;64830;46.910;6.354;2023-04-09T07:06:02;6.99;68.37
76102;SHT30;64830;46.910;6.354;2023-04-09T07:08:28;6.99;67.76
76102;SHT30;64830;46.910;6.354;2023-04-09T07:10:53;7.03;68.10
76102;SHT30;64830;46.910;6.354;2023-04-09T07:13:19;7.14;68.11
76102;SHT30;64830;46.910;6.354;2023-04-09T07:15:45;7.32;67.98
76102;SHT30;64830;46.910;6.354;2023-04-09T07:18:11;7.51;68.00
76102;SHT30;64830;46.910;6.354;2023-04-09T07:20:36;7.72;67.38
76102;SHT30;64830;46.910;6.354;2023-04-09T07:23:02;7.87;66.82
76102;SHT30;64830;46.910;6.354;2023-04-09T07:25:27;8.00;66.37
76102;SHT30;64830;46.910;6.354;2023-04-09T07:27:52;8.17;66.23
76102;SHT30;64830;46.910;6.354;2023-04-09T07:30:18;8.31;65.81
76102;SHT30;64830;46.910;6.354;2023-04-09T07:32:43;8.44;65.49
76102;SHT30;64830;46.910;6.354;2023-04-09T07:35:09;8.60;65.31
76102;SHT30;64830;46.910;6.354;2023-04-09T07:37:35;8.75;64.87
76102;SHT30;64830;46.910;6.354;2023-04-09T07:40:01;8.86;64.71
76102;SHT30;64830;46.910;6.354;2023-04-09T07:42:28;8.96;64.25
76102;SHT30;64830;46.910;6.354;2023-04-09T07:44:53;9.10;63.92
76102;SHT30;64830;46.910;6.354;2023-04-09T07:47:19;9.25;63.81
76102;SHT30;64830;46.910;6.354;2023-04-09T07:49:44;9.42;63.70
76102;SHT30;64830;46.910;6.354;2023-04-09T07:52:10;9.59;63.61
76102;SHT30;64830;46.910;6.354;2023-04-09T07:54:35;9.73;62.78
76102;SHT30;64830;46.910;6.354;2023-04-09T07:57:01;9.87;62.48
76102;SHT30;64830;46.910;6.354;2023-04-09T07:59:27;10.01;62.28
76102;SHT30;64830;46.910;6.354;2023-04-09T08:01:52;10.11;61.89
76102;SHT30;64830;46.910;6.354;2023-04-09T08:04:18;10.22;61.85
76102;SHT30;64830;46.910;6.354;2023-04-09T08:06:44;10.38;61.47
76102;SHT30;64830;46.910;6.354;2023-04-09T08:09:16;10.46;60.71
76102;SHT30;64830;46.910;6.354;2023-04-09T08:11:41;10.55;60.78
76102;SHT30;64830;46.910;6.354;2023-04-09T08:14:06;10.63;57.95
76102;SHT30;64830;46.910;6.354;2023-04-09T08:16:39;10.60;60.06
76102;SHT30;64830;46.910;6.354;2023-04-09T08:19:06;10.67;59.69
76102;SHT30;64830;46.910;6.354;2023-04-09T08:21:32;10.77;59.54
76102;SHT30;64830;46.910;6.354;2023-04-09T08:23:57;10.81;58.62
76102;SHT30;64830;46.910;6.354;2023-04-09T08:26:28;10.83;59.17
76102;SHT30;64830;46.910;6.354;2023-04-09T08:28:54;10.87;58.82
76102;SHT30;64830;46.910;6.354;2023-04-09T08:31:19;10.96;56.87
76102;SHT30;64830;46.910;6.354;2023-04-09T08:33:45;10.94;56.64
76102;SHT30;64830;46.910;6.354;2023-04-09T08:36:11;11.04;58.19
76102;SHT30;64830;46.910;6.354;2023-04-09T08:38:36;11.25;57.91
76102;SHT30;64830;46.910;6.354;2023-04-09T08:41:02;11.34;56.86
76102;SHT30;64830;46.910;6.354;2023-04-09T08:43:29;11.38;57.94
76102;SHT30;64830;46.910;6.354;2023-04-09T08:45:54;11.47;55.61
76102;SHT30;64830;46.910;6.354;2023-04-09T08:48:23;11.56;54.42
76102;SHT30;64830;46.910;6.354;2023-04-09T08:50:48;11.63;56.46
76102;SHT30;64830;46.910;6.354;2023-04-09T08:53:15;11.83;55.87
76102;SHT30;64830;46.910;6.354;2023-04-09T08:55:44;12.02;54.96
76102;SHT30;64830;46.910;6.354;2023-04-09T08:58:09;12.17;54.45
76102;SHT30;64830;46.910;6.354;2023-04-09T09:00:36;12.22;53.47
76102;SHT30;64830;46.910;6.354;2023-04-09T09:03:09;12.29;51.42
76102;SHT30;64830;46.910;6.354;2023-04-09T09:05:44;12.32;53.43
76102;SHT30;64830;46.910;6.354;2023-04-09T09:08:13;12.45;51.71
76102;SHT30;64830;46.910;6.354;2023-04-09T09:10:46;12.53;51.22
76102;SHT30;64830;46.910;6.354;2023-04-09T09:13:22;12.62;52.21
76102;SHT30;64830;46.910;6.354;2023-04-09T09:15:49;12.67;49.96
76102;SHT30;64830;46.910;6.354;2023-04-09T09:18:19;12.62;49.14
76102;SHT30;64830;46.910;6.354;2023-04-09T09:20:45;12.62;52.18
76102;SHT30;64830;46.910;6.354;2023-04-09T09:23:10;12.79;52.85
76102;SHT30;64830;46.910;6.354;2023-04-09T09:25:40;12.97;51.48
76102;SHT30;64830;46.910;6.354;2023-04-09T09:28:10;12.97;50.46
76102;SHT30;64830;46.910;6.354;2023-04-09T09:30:38;13.03;50.70
76102;SHT30;64830;46.910;6.354;2023-04-09T09:33:05;13.12;51.86
76102;SHT30;64830;46.910;6.354;2023-04-09T09:35:48;13.19;49.40
76102;SHT30;64830;46.910;6.354;2023-04-09T09:38:14;13.24;50.21
76102;SHT30;64830;46.910;6.354;2023-04-09T09:40:41;13.24;50.04
76102;SHT30;64830;46.910;6.354;2023-04-09T09:43:06;13.16;49.08
76102;SHT30;64830;46.910;6.354;2023-04-09T09:45:32;13.10;49.75
76102;SHT30;64830;46.910;6.354;2023-04-09T09:47:57;13.16;50.59
76102;SHT30;64830;46.910;6.354;2023-04-09T09:50:23;13.28;49.87
76102;SHT30;64830;46.910;6.354;2023-04-09T09:53:01;13.41;49.88
76102;SHT30;64830;46.910;6.354;2023-04-09T09:55:30;13.52;49.66
76102;SHT30;64830;46.910;6.354;2023-04-09T09:57:59;13.50;48.90
76102;SHT30;64830;46.910;6.354;2023-04-09T10:00:26;13.56;49.70
76102;SHT30;64830;46.910;6.354;2023-04-09T10:02:56;13.66;49.57
76102;SHT30;64830;46.910;6.354;2023-04-09T10:05:23;13.80;49.53
76102;SHT30;64830;46.910;6.354;2023-04-09T10:07:53;13.91;49.73
76102;SHT30;64830;46.910;6.354;2023-04-09T10:10:21;13.97;48.78
76102;SHT30;64830;46.910;6.354;2023-04-09T10:12:48;14.03;48.30
76102;SHT30;64830;46.910;6.354;2023-04-09T10:15:14;14.05;48.22
76102;SHT30;64830;46.910;6.354;2023-04-09T10:17:39;14.08;47.67
76102;SHT30;64830;46.910;6.354;2023-04-09T10:20:18;14.14;49.05
76102;SHT30;64830;46.910;6.354;2023-04-09T10:22:47;14.25;48.75
76102;SHT30;64830;46.910;6.354;2023-04-09T10:25:13;14.36;48.41
76102;SHT30;64830;46.910;6.354;2023-04-09T10:27:41;14.45;47.56
76102;SHT30;64830;46.910;6.354;2023-04-09T10:30:30;14.43;47.08
76102;SHT30;64830;46.910;6.354;2023-04-09T10:33:10;14.28;46.65
76102;SHT30;64830;46.910;6.354;2023-04-09T10:35:35;14.25;48.10
76102;SHT30;64830;46.910;6.354;2023-04-09T10:38:01;14.38;48.01
76102;SHT30;64830;46.910;6.354;2023-04-09T10:40:27;14.42;44.96
76102;SHT30;64830;46.910;6.354;2023-04-09T10:42:53;14.39;46.18
76102;SHT30;64830;46.910;6.354;2023-04-09T10:45:20;14.29;41.91
76102;SHT30;64830;46.910;6.354;2023-04-09T10:47:49;14.12;43.96
76102;SHT30;64830;46.910;6.354;2023-04-09T10:50:20;13.93;43.47
76102;SHT30;64830;46.910;6.354;2023-04-09T10:52:51;13.73;44.24
76102;SHT30;64830;46.910;6.354;2023-04-09T10:55:38;13.60;45.47
76102;SHT30;64830;46.910;6.354;2023-04-09T10:58:08;13.58;47.19
76102;SHT30;64830;46.910;6.354;2023-04-09T11:00:39;13.70;46.94
76102;SHT30;64830;46.910;6.354;2023-04-09T11:05:38;13.93;45.83
76102;SHT30;64830;46.910;6.354;2023-04-09T11:08:07;14.00;46.15
76102;SHT30;64830;46.910;6.354;2023-04-09T11:10:34;14.10;45.70
76102;SHT30;64830;46.910;6.354;2023-04-09T11:13:00;14.15;45.14
76102;SHT30;64830;46.910;6.354;2023-04-09T11:15:26;14.22;43.69
76102;SHT30;64830;46.910;6.354;2023-04-09T11:17:51;14.25;45.32
76102;SHT30;64830;46.910;6.354;2023-04-09T11:20:20;14.39;45.63
76102;SHT30;64830;46.910;6.354;2023-04-09T11:22:47;14.50;44.97
76102;SHT30;64830;46.910;6.354;2023-04-09T11:25:26;14.66;45.61
76102;SHT30;64830;46.910;6.354;2023-04-09T11:27:52;14.70;41.20
76102;SHT30;64830;46.910;6.354;2023-04-09T11:30:19;14.72;41.87
76102;SHT30;64830;46.910;6.354;2023-04-09T11:32:45;14.70;43.02
76102;SHT30;64830;46.910;6.354;2023-04-09T11:35:18;14.66;41.80
76102;SHT30;64830;46.910;6.354;2023-04-09T11:37:45;14.63;43.70
76102;SHT30;64830;46.910;6.354;2023-04-09T11:42:45;14.76;43.54
76102;SHT30;64830;46.910;6.354;2023-04-09T11:45:11;14.76;42.64
76102;SHT30;64830;46.910;6.354;2023-04-09T11:47:40;14.79;42.05
76102;SHT30;64830;46.910;6.354;2023-04-09T11:50:10;14.84;43.00
76102;SHT30;64830;46.910;6.354;2023-04-09T11:52:36;14.87;40.89
76102;SHT30;64830;46.910;6.354;2023-04-09T11:55:05;14.73;40.91
76102;SHT30;64830;46.910;6.354;2023-04-09T11:57:45;14.67;43.62
76102;SHT30;64830;46.910;6.354;2023-04-09T12:00:15;14.73;42.52
76102;SHT30;64830;46.910;6.354;2023-04-09T12:02:43;14.84;42.39
76102;SHT30;64830;46.910;6.354;2023-04-09T12:05:12;14.95;41.84
76102;SHT30;64830;46.910;6.354;2023-04-09T12:07:38;15.00;41.63
76102;SHT30;64830;46.910;6.354;2023-04-09T12:10:08;15.00;42.60
76102;SHT30;64830;46.910;6.354;2023-04-09T12:12:45;15.11;42.14
76102;SHT30;64830;46.910;6.354;2023-04-09T12:15:44;15.24;41.68
76102;SHT30;64830;46.910;6.354;2023-04-09T12:18:03;15.34;41.70
76102;SHT30;64830;46.910;6.354;2023-04-09T12:20:38;15.36;41.60
76102;SHT30;64830;46.910;6.354;2023-04-09T12:23:05;15.32;41.57
76102;SHT30;64830;46.910;6.354;2023-04-09T12:25:35;15.31;41.57
76102;SHT30;64830;46.910;6.354;2023-04-09T12:28:02;15.32;39.28
76102;SHT30;64830;46.910;6.354;2023-04-09T12:30:28;15.27;41.42
76102;SHT30;64830;46.910;6.354;2023-04-09T12:32:55;15.24;41.49
76102;SHT30;64830;46.910;6.354;2023-04-09T12:35:21;15.27;41.08
76102;SHT30;64830;46.910;6.354;2023-04-09T12:37:47;15.25;42.00
76102;SHT30;64830;46.910;6.354;2023-04-09T12:40:12;15.29;41.64
76102;SHT30;64830;46.910;6.354;2023-04-09T12:42:42;15.43;42.34
76102;SHT30;64830;46.910;6.354;2023-04-09T12:45:09;15.47;40.61
76102;SHT30;64830;46.910;6.354;2023-04-09T12:47:35;15.59;41.46
76102;SHT30;64830;46.910;6.354;2023-04-09T12:50:02;15.57;39.95
76102;SHT30;64830;46.910;6.354;2023-04-09T12:52:28;15.60;40.88
76102;SHT30;64830;46.910;6.354;2023-04-09T12:54:53;15.62;40.79
76102;SHT30;64830;46.910;6.354;2023-04-09T12:57:19;15.62;40.57
76102;SHT30;64830;46.910;6.354;2023-04-09T12:59:45;15.63;39.63
76102;SHT30;64830;46.910;6.354;2023-04-09T13:02:10;15.64;41.00
76102;SHT30;64830;46.910;6.354;2023-04-09T13:04:35;15.69;41.17
76102;SHT30;64830;46.910;6.354;2023-04-09T13:07:01;15.77;41.34
76102;SHT30;64830;46.910;6.354;2023-04-09T13:09:26;15.81;41.68
76102;SHT30;64830;46.910;6.354;2023-04-09T13:11:52;15.83;42.73
76102;SHT30;64830;46.910;6.354;2023-04-09T13:14:17;15.86;42.71
76102;SHT30;64830;46.910;6.354;2023-04-09T13:16:42;15.81;43.16
76102;SHT30;64830;46.910;6.354;2023-04-09T13:19:08;15.77;43.58
76102;SHT30;64830;46.910;6.354;2023-04-09T13:21:34;15.74;41.65
76102;SHT30;64830;46.910;6.354;2023-04-09T13:23:59;15.71;42.30
76102;SHT30;64830;46.910;6.354;2023-04-09T13:26:25;15.67;44.52
76102;SHT30;64830;46.910;6.354;2023-04-09T13:28:50;15.80;44.23
76102;SHT30;64830;46.910;6.354;2023-04-09T13:31:16;15.90;43.02
76102;SHT30;64830;46.910;6.354;2023-04-09T13:33:42;15.97;42.68
76102;SHT30;64830;46.910;6.354;2023-04-09T13:36:07;15.86;42.95
76102;SHT30;64830;46.910;6.354;2023-04-09T13:38:33;15.89;43.97
76102;SHT30;64830;46.910;6.354;2023-04-09T13:40:58;15.98;42.70
76102;SHT30;64830;46.910;6.354;2023-04-09T13:43:24;16.04;43.18
76102;SHT30;64830;46.910;6.354;2023-04-09T13:45:52;16.08;43.51
76102;SHT30;64830;46.910;6.354;2023-04-09T13:48:19;16.01;42.97
76102;SHT30;64830;46.910;6.354;2023-04-09T13:50:45;15.98;42.44
76102;SHT30;64830;46.910;6.354;2023-04-09T13:53:10;16.02;42.72
76102;SHT30;64830;46.910;6.354;2023-04-09T13:55:35;16.09;43.33
76102;SHT30;64830;46.910;6.354;2023-04-09T13:58:01;16.09;43.94
76102;SHT30;64830;46.910;6.354;2023-04-09T14:00:26;16.07;43.37
76102;SHT30;64830;46.910;6.354;2023-04-09T14:02:51;16.01;43.20
76102;SHT30;64830;46.910;6.354;2023-04-09T14:05:17;15.96;43.05
76102;SHT30;64830;46.910;6.354;2023-04-09T14:07:42;15.83;43.54
76102;SHT30;64830;46.910;6.354;2023-04-09T14:10:08;15.91;44.16
76102;SHT30;64830;46.910;6.354;2023-04-09T14:12:33;15.93;44.78
76102;SHT30;64830;46.910;6.354;2023-04-09T14:14:59;15.96;43.74
76102;SHT30;64830;46.910;6.354;2023-04-09T14:17:25;15.98;43.76
76102;SHT30;64830;46.910;6.354;2023-04-09T14:19:50;16.00;44.19
76102;SHT30;64830;46.910;6.354;2023-04-09T14:22:16;15.94;43.91
76102;SHT30;64830;46.910;6.354;2023-04-09T14:24:41;15.96;44.62
76102;SHT30;64830;46.910;6.354;2023-04-09T14:27:07;15.97;43.88
76102;SHT30;64830;46.910;6.354;2023-04-09T14:29:32;16.00;43.98
76102;SHT30;64830;46.910;6.354;2023-04-09T14:31:58;16.01;43.96
76102;SHT30;64830;46.910;6.354;2023-04-09T14:34:25;16.02;43.86
76102;SHT30;64830;46.910;6.354;2023-04-09T14:36:50;16.05;43.84
76102;SHT30;64830;46.910;6.354;2023-04-09T14:39:16;16.12;43.96
76102;SHT30;64830;46.910;6.354;2023-04-09T14:41:42;16.07;43.57
76102;SHT30;64830;46.910;6.354;2023-04-09T14:44:07;16.08;44.00
76102;SHT30;64830;46.910;6.354;2023-04-09T14:46:32;16.22;44.52
76102;SHT30;64830;46.910;6.354;2023-04-09T14:48:58;16.30;44.68
76102;SHT30;64830;46.910;6.354;2023-04-09T14:51:23;16.35;44.63
76102;SHT30;64830;46.910;6.354;2023-04-09T14:53:49;16.35;44.49
76102;SHT30;64830;46.910;6.354;2023-04-09T14:56:14;16.30;44.89
76102;SHT30;64830;46.910;6.354;2023-04-09T14:58:39;16.28;45.83
76102;SHT30;64830;46.910;6.354;2023-04-09T15:01:05;16.32;45.15
76102;SHT30;64830;46.910;6.354;2023-04-09T15:03:30;16.26;45.55
76102;SHT30;64830;46.910;6.354;2023-04-09T15:05:56;16.21;45.65
76102;SHT30;64830;46.910;6.354;2023-04-09T15:08:21;16.30;45.31
76102;SHT30;64830;46.910;6.354;2023-04-09T15:10:47;16.41;45.06
76102;SHT30;64830;46.910;6.354;2023-04-09T15:13:13;16.36;45.73
76102;SHT30;64830;46.910;6.354;2023-04-09T15:15:41;16.26;46.18
76102;SHT30;64830;46.910;6.354;2023-04-09T15:18:08;16.22;46.83
76102;SHT30;64830;46.910;6.354;2023-04-09T15:20:37;16.24;46.49
76102;SHT30;64830;46.910;6.354;2023-04-09T15:23:03;16.21;46.33
76102;SHT30;64830;46.910;6.354;2023-04-09T15:25:28;16.17;46.10
76102;SHT30;64830;46.910;6.354;2023-04-09T15:27:53;16.12;46.40
76102;SHT30;64830;46.910;6.354;2023-04-09T15:30:19;16.08;46.59
76102;SHT30;64830;46.910;6.354;2023-04-09T15:32:44;16.02;46.71
76102;SHT30;64830;46.910;6.354;2023-04-09T15:35:10;16.04;47.07
76102;SHT30;64830;46.910;6.354;2023-04-09T15:37:37;16.02;47.55
76102;SHT30;64830;46.910;6.354;2023-04-09T15:40:03;15.98;47.62
76102;SHT30;64830;46.910;6.354;2023-04-09T15:42:28;16.02;47.45
76102;SHT30;64830;46.910;6.354;2023-04-09T15:44:54;16.04;47.13
76102;SHT30;64830;46.910;6.354;2023-04-09T15:47:19;16.02;47.59
76102;SHT30;64830;46.910;6.354;2023-04-09T15:49:45;16.07;48.63
76102;SHT30;64830;46.910;6.354;2023-04-09T15:52:12;16.18;47.32